sensor_id;sensor_type;location;lat;lon;timestamp;pressure;altitude;pressure_sealevel;temperature;humidity
16331;BME280;8275;48.206;16.340;2023-04-01T00:02:03;97779.06;;;16.45;38.52
16331;BME280;8275;48.206;16.340;2023-04-01T00:04:31;97794.34;;;16.43;38.46
16331;BME280;8275;48.206;16.340;2023-04-01T00:07:02;97801.00;;;16.42;38.22
16331;BME280;8275;48.206;16.340;2023-04-01T00:09:30;97795.47;;;16.42;38.29
16331;BME280;8275;48.206;16.340;2023-04-01T00:11:58;97806.06;;;16.40;38.02
16331;BME280;8275;48.206;16.340;2023-04-01T00:14:27;97812.75;;;16.39;38.24
16331;BME280;8275;48.206;16.340;2023-04-01T00:16:56;97813.06;;;16.37;38.16
16331;BME280;8275;48.206;16.340;2023-04-01T00:19:25;97815.03;;;16.37;38.13
16331;BME280;8275;48.206;16.340;2023-04-01T00:21:53;97815.34;;;16.35;38.15
16331;BME280;8275;48.206;16.340;2023-04-01T00:24:23;97835.03;;;16.34;38.31
16331;BME280;8275;48.206;16.340;2023-04-01T00:26:52;97833.72;;;16.31;38.46
16331;BME280;8275;48.206;16.340;2023-04-01T00:29:20;97829.66;;;16.29;38.62
16331;BME280;8275;48.206;16.340;2023-04-01T00:31:51;97824.00;;;16.25;38.64
16331;BME280;8275;48.206;16.340;2023-04-01T00:34:19;97817.66;;;16.25;38.54
16331;BME280;8275;48.206;16.340;2023-04-01T00:36:48;97831.00;;;16.23;38.69
16331;BME280;8275;48.206;16.340;2023-04-01T00:39:17;97829.69;;;16.20;38.55
16331;BME280;8275;48.206;16.340;2023-04-01T00:41:47;97817.34;;;16.17;38.72
16331;BME280;8275;48.206;16.340;2023-04-01T00:44:19;97810.19;;;16.16;38.65
16331;BME280;8275;48.206;16.340;2023-04-01T00:46:49;97803.03;;;16.15;38.50
16331;BME280;8275;48.206;16.340;2023-04-01T00:49:20;97805.81;;;16.15;38.62
16331;BME280;8275;48.206;16.340;2023-04-01T00:51:54;97817.97;;;16.14;38.59
16331;BME280;8275;48.206;16.340;2023-04-01T00:54:25;97823.50;;;16.14;38.66
16331;BME280;8275;48.206;16.340;2023-04-01T00:57:00;97806.44;;;16.12;38.64
16331;BME280;8275;48.206;16.340;2023-04-01T00:59:34;97810.03;;;16.13;38.66
16331;BME280;8275;48.206;16.340;2023-04-01T01:02:04;97808.88;;;16.14;38.64
16331;BME280;8275;48.206;16.340;2023-04-01T01:04:35;97797.03;;;16.13;38.45
16331;BME280;8275;48.206;16.340;2023-04-01T01:07:18;97804.84;;;16.11;38.43
16331;BME280;8275;48.206;16.340;2023-04-01T01:09:56;97807.59;;;16.11;38.48
16331;BME280;8275;48.206;16.340;2023-04-01T01:12:38;97805.97;;;16.10;38.43
16331;BME280;8275;48.206;16.340;2023-04-01T01:15:14;97806.31;;;16.09;38.43
16331;BME280;8275;48.206;16.340;2023-04-01T01:17:55;97807.09;;;16.09;38.34
16331;BME280;8275;48.206;16.340;2023-04-01T01:21:20;97799.78;;;16.05;38.47
16331;BME280;8275;48.206;16.340;2023-04-01T01:24:28;97788.59;;;16.01;38.21
16331;BME280;8275;48.206;16.340;2023-04-01T01:27:04;97797.38;;;16.03;38.36
16331;BME280;8275;48.206;16.340;2023-04-01T01:30:10;97790.88;;;15.99;38.43
16331;BME280;8275;48.206;16.340;2023-04-01T01:33:10;97780.47;;;15.96;38.33
16331;BME280;8275;48.206;16.340;2023-04-01T01:35:45;97781.31;;;15.97;38.33
16331;BME280;8275;48.206;16.340;2023-04-01T01:38:18;97779.84;;;15.99;38.39
16331;BME280;8275;48.206;16.340;2023-04-01T01:40:50;97767.16;;;15.98;38.43
16331;BME280;8275;48.206;16.340;2023-04-01T01:43:24;97776.25;;;15.99;38.34
16331;BME280;8275;48.206;16.340;2023-04-01T01:45:57;97782.59;;;15.99;38.34
16331;BME280;8275;48.206;16.340;2023-04-01T01:48:28;97788.94;;;16.00;38.29
16331;BME280;8275;48.206;16.340;2023-04-01T01:50:59;97795.59;;;15.99;38.39
16331;BME280;8275;48.206;16.340;2023-04-01T01:53:28;97801.94;;;15.99;38.55
16331;BME280;8275;48.206;16.340;2023-04-01T01:55:56;97796.72;;;15.98;38.69
16331;BME280;8275;48.206;16.340;2023-04-01T01:58:29;97799.00;;;15.96;38.63
16331;BME280;8275;48.206;16.340;2023-04-01T02:01:01;97802.09;;;15.94;38.57
16331;BME280;8275;48.206;16.340;2023-04-01T02:03:34;97800.47;;;15.93;38.65
16331;BME280;8275;48.206;16.340;2023-04-01T02:06:09;97801.63;;;15.92;38.71
16331;BME280;8275;48.206;16.340;2023-04-01T02:08:42;97807.44;;;15.91;38.99
16331;BME280;8275;48.206;16.340;2023-04-01T02:11:13;97795.59;;;15.90;38.93
16331;BME280;8275;48.206;16.340;2023-04-01T02:13:50;97799.34;;;15.86;38.91
16331;BME280;8275;48.206;16.340;2023-04-01T02:16:25;97788.94;;;15.83;39.44
16331;BME280;8275;48.206;16.340;2023-04-01T02:18:58;97800.31;;;15.81;39.65
16331;BME280;8275;48.206;16.340;2023-04-01T02:21:32;97800.97;;;15.78;39.53
16331;BME280;8275;48.206;16.340;2023-04-01T02:24:02;97794.16;;;15.76;39.69
16331;BME280;8275;48.206;16.340;2023-04-01T02:26:32;97796.41;;;15.74;39.99
16331;BME280;8275;48.206;16.340;2023-04-01T02:29:03;97795.13;;;15.71;39.77
16331;BME280;8275;48.206;16.340;2023-04-01T02:31:34;97799.69;;;15.67;40.21
16331;BME280;8275;48.206;16.340;2023-04-01T02:34:03;97798.03;;;15.66;40.04
16331;BME280;8275;48.206;16.340;2023-04-01T02:36:35;97804.22;;;15.63;40.03
16331;BME280;8275;48.206;16.340;2023-04-01T02:39:05;97812.81;;;15.62;39.77
16331;BME280;8275;48.206;16.340;2023-04-01T02:41:39;97805.19;;;15.59;40.34
16331;BME280;8275;48.206;16.340;2023-04-01T02:44:08;97800.00;;;15.57;40.11
16331;BME280;8275;48.206;16.340;2023-04-01T02:46:37;97814.94;;;15.56;40.15
16331;BME280;8275;48.206;16.340;2023-04-01T02:49:06;97825.16;;;15.56;40.13
16331;BME280;8275;48.206;16.340;2023-04-01T02:51:36;97816.41;;;15.54;40.21
16331;BME280;8275;48.206;16.340;2023-04-01T02:54:05;97815.59;;;15.53;40.30
16331;BME280;8275;48.206;16.340;2023-04-01T02:56:33;97819.47;;;15.52;39.96
16331;BME280;8275;48.206;16.340;2023-04-01T02:59:02;97818.66;;;15.52;40.84
16331;BME280;8275;48.206;16.340;2023-04-01T03:01:30;97819.31;;;15.49;41.96
16331;BME280;8275;48.206;16.340;2023-04-01T03:03:59;97829.03;;;15.46;42.41
16331;BME280;8275;48.206;16.340;2023-04-01T03:06:28;97819.28;;;15.40;42.58
16331;BME280;8275;48.206;16.340;2023-04-01T03:08:57;97822.50;;;15.33;42.48
16331;BME280;8275;48.206;16.340;2023-04-01T03:11:26;97817.78;;;15.25;42.59
16331;BME280;8275;48.206;16.340;2023-04-01T03:13:54;97825.22;;;15.16;42.27
16331;BME280;8275;48.206;16.340;2023-04-01T03:16:23;97821.63;;;15.07;42.13
16331;BME280;8275;48.206;16.340;2023-04-01T03:18:51;97818.53;;;15.00;41.98
16331;BME280;8275;48.206;16.340;2023-04-01T03:21:23;97813.16;;;14.95;42.08
16331;BME280;8275;48.206;16.340;2023-04-01T03:23:52;97811.34;;;14.91;42.00
16331;BME280;8275;48.206;16.340;2023-04-01T03:26:22;97825.00;;;14.87;41.85
16331;BME280;8275;48.206;16.340;2023-04-01T03:28:50;97824.47;;;14.85;41.87
16331;BME280;8275;48.206;16.340;2023-04-01T03:31:19;97813.78;;;14.84;42.05
16331;BME280;8275;48.206;16.340;2023-04-01T03:33:50;97821.22;;;14.83;41.99
16331;BME280;8275;48.206;16.340;2023-04-01T03:36:18;97813.78;;;14.84;41.95
16331;BME280;8275;48.206;16.340;2023-04-01T03:38:47;97807.94;;;14.85;41.77
16331;BME280;8275;48.206;16.340;2023-04-01T03:41:17;97806.81;;;14.86;41.79
16331;BME280;8275;48.206;16.340;2023-04-01T03:43:47;97821.09;;;14.88;41.73
16331;BME280;8275;48.206;16.340;2023-04-01T03:46:18;97820.25;;;14.88;41.75
16331;BME280;8275;48.206;16.340;2023-04-01T03:48:46;97810.53;;;14.90;41.69
16331;BME280;8275;48.206;16.340;2023-04-01T03:51:15;97810.25;;;14.92;41.63
16331;BME280;8275;48.206;16.340;2023-04-01T03:53:43;97820.13;;;14.93;41.61
16331;BME280;8275;48.206;16.340;2023-04-01T03:56:12;97817.03;;;14.94;41.57
16331;BME280;8275;48.206;16.340;2023-04-01T03:58:40;97815.09;;;14.95;41.66
16331;BME280;8275;48.206;16.340;2023-04-01T04:01:19;97800.50;;;14.94;41.63
16331;BME280;8275;48.206;16.340;2023-04-01T04:03:48;97794.69;;;14.96;41.54
16331;BME280;8275;48.206;16.340;2023-04-01T04:06:19;97801.00;;;14.96;41.55
16331;BME280;8275;48.206;16.340;2023-04-01T04:08:48;97795.16;;;14.98;41.47
16331;BME280;8275;48.206;16.340;2023-04-01T04:11:17;97804.25;;;14.98;41.54
16331;BME280;8275;48.206;16.340;2023-04-01T04:13:47;97797.59;;;14.99;41.66
16331;BME280;8275;48.206;16.340;2023-04-01T04:16:17;97803.09;;;14.99;41.68
16331;BME280;8275;48.206;16.340;2023-04-01T04:18:46;97805.22;;;15.02;41.56
16331;BME280;8275;48.206;16.340;2023-04-01T04:21:15;97810.75;;;15.02;41.49
16331;BME280;8275;48.206;16.340;2023-04-01T04:23:43;97817.09;;;15.03;41.44
16331;BME280;8275;48.206;16.340;2023-04-01T04:26:13;97811.56;;;15.03;41.43
16331;BME280;8275;48.206;16.340;2023-04-01T04:28:42;97818.69;;;15.04;41.28
16331;BME280;8275;48.206;16.340;2023-04-01T04:31:11;97819.50;;;15.04;41.20
16331;BME280;8275;48.206;16.340;2023-04-01T04:33:41;97807.34;;;15.05;41.18
16331;BME280;8275;48.206;16.340;2023-04-01T04:36:09;97819.50;;;15.04;41.16
16331;BME280;8275;48.206;16.340;2023-04-01T04:38:38;97813.16;;;15.04;41.27
16331;BME280;8275;48.206;16.340;2023-04-01T04:41:09;97804.13;;;15.03;41.16
16331;BME280;8275;48.206;16.340;2023-04-01T04:43:39;97815.16;;;15.03;41.06
16331;BME280;8275;48.206;16.340;2023-04-01T04:46:08;97815.44;;;15.02;41.22
16331;BME280;8275;48.206;16.340;2023-04-01T04:48:37;97808.81;;;15.03;41.10
16331;BME280;8275;48.206;16.340;2023-04-01T04:51:06;97815.16;;;15.03;41.19
16331;BME280;8275;48.206;16.340;2023-04-01T04:53:35;97808.00;;;15.02;41.24
16331;BME280;8275;48.206;16.340;2023-04-01T04:56:03;97801.66;;;15.02;41.12
16331;BME280;8275;48.206;16.340;2023-04-01T04:58:32;97807.16;;;15.02;41.19
16331;BME280;8275;48.206;16.340;2023-04-01T05:01:07;97832.31;;;15.00;41.24
16331;BME280;8275;48.206;16.340;2023-04-01T05:03:36;97825.34;;;15.03;41.05
16331;BME280;8275;48.206;16.340;2023-04-01T05:06:09;97819.34;;;15.01;40.98
16331;BME280;8275;48.206;16.340;2023-04-01T05:08:37;97832.00;;;15.02;40.89
16331;BME280;8275;48.206;16.340;2023-04-01T05:11:10;97833.94;;;15.01;40.83
16331;BME280;8275;48.206;16.340;2023-04-01T05:13:40;97828.13;;;15.03;40.95
16331;BME280;8275;48.206;16.340;2023-04-01T05:16:10;97834.13;;;15.05;41.07
16331;BME280;8275;48.206;16.340;2023-04-01T05:18:39;97820.50;;;15.08;40.74
16331;BME280;8275;48.206;16.340;2023-04-01T05:21:11;97820.97;;;15.10;41.07
16331;BME280;8275;48.206;16.340;2023-04-01T05:23:41;97807.03;;;15.15;40.99
16331;BME280;8275;48.206;16.340;2023-04-01T05:26:12;97812.41;;;15.20;40.82
16331;BME280;8275;48.206;16.340;2023-04-01T05:28:41;97814.19;;;15.25;40.96
16331;BME280;8275;48.206;16.340;2023-04-01T05:31:10;97808.06;;;15.28;41.09
16331;BME280;8275;48.206;16.340;2023-04-01T05:33:38;97798.00;;;15.32;40.98
16331;BME280;8275;48.206;16.340;2023-04-01T05:36:10;97801.22;;;15.34;40.91
16331;BME280;8275;48.206;16.340;2023-04-01T05:38:40;97813.56;;;15.36;40.91
16331;BME280;8275;48.206;16.340;2023-04-01T05:41:09;97816.00;;;15.38;41.01
16331;BME280;8275;48.206;16.340;2023-04-01T05:43:39;97829.97;;;15.41;40.94
16331;BME280;8275;48.206;16.340;2023-04-01T05:46:07;97819.75;;;15.42;41.07
16331;BME280;8275;48.206;16.340;2023-04-01T05:48:36;97827.94;;;15.47;40.82
16331;BME280;8275;48.206;16.340;2023-04-01T05:51:05;97833.25;;;15.52;40.98
16331;BME280;8275;48.206;16.340;2023-04-01T05:53:34;97828.91;;;15.60;41.15
16331;BME280;8275;48.206;16.340;2023-04-01T05:56:04;97845.94;;;15.70;40.85
16331;BME280;8275;48.206;16.340;2023-04-01T05:58:33;97845.28;;;15.82;40.58
16331;BME280;8275;48.206;16.340;2023-04-01T06:01:02;97852.78;;;15.98;40.68
16331;BME280;8275;48.206;16.340;2023-04-01T06:03:40;97861.22;;;16.19;40.48
16331;BME280;8275;48.206;16.340;2023-04-01T06:06:14;97865.44;;;16.34;40.32
16331;BME280;8275;48.206;16.340;2023-04-01T06:08:44;97868.34;;;16.54;40.05
16331;BME280;8275;48.206;16.340;2023-04-01T06:11:26;97876.09;;;16.78;39.97
16331;BME280;8275;48.206;16.340;2023-04-01T06:14:22;97854.19;;;17.02;39.68
16331;BME280;8275;48.206;16.340;2023-04-01T06:17:13;97866.78;;;17.20;39.46
16331;BME280;8275;48.206;16.340;2023-04-01T06:19:51;97868.19;;;17.35;39.26
16331;BME280;8275;48.206;16.340;2023-04-01T06:23:10;97876.59;;;17.47;38.61
16331;BME280;8275;48.206;16.340;2023-04-01T06:25:56;97864.34;;;17.57;38.88
16331;BME280;8275;48.206;16.340;2023-04-01T06:29:24;97853.69;;;17.67;38.78
16331;BME280;8275;48.206;16.340;2023-04-01T06:32:22;97852.94;;;17.79;38.74
16331;BME280;8275;48.206;16.340;2023-04-01T06:35:21;97860.88;;;17.89;38.55
16331;BME280;8275;48.206;16.340;2023-04-01T06:38:46;97872.81;;;18.01;38.40
16331;BME280;8275;48.206;16.340;2023-04-01T06:41:44;97858.31;;;18.16;38.20
16331;BME280;8275;48.206;16.340;2023-04-01T06:44:20;97861.63;;;18.31;38.04
16331;BME280;8275;48.206;16.340;2023-04-01T06:46:58;97871.16;;;18.42;37.70
16331;BME280;8275;48.206;16.340;2023-04-01T06:49:42;97844.97;;;18.51;37.40
16331;BME280;8275;48.206;16.340;2023-04-01T06:52:19;97856.66;;;18.57;36.86
16331;BME280;8275;48.206;16.340;2023-04-01T06:54:57;97862.31;;;18.60;36.80
16331;BME280;8275;48.206;16.340;2023-04-01T06:57:35;97864.78;;;18.62;36.51
16331;BME280;8275;48.206;16.340;2023-04-01T07:00:14;97859.56;;;18.60;36.42
16331;BME280;8275;48.206;16.340;2023-04-01T07:02:50;97860.50;;;18.64;36.63
16331;BME280;8275;48.206;16.340;2023-04-01T07:05:23;97873.00;;;18.70;36.66
16331;BME280;8275;48.206;16.340;2023-04-01T07:07:54;97862.97;;;18.78;36.56
16331;BME280;8275;48.206;16.340;2023-04-01T07:10:33;97869.78;;;18.80;36.20
16331;BME280;8275;48.206;16.340;2023-04-01T07:13:09;97872.00;;;18.87;35.96
16331;BME280;8275;48.206;16.340;2023-04-01T07:15:42;97874.66;;;18.96;36.10
16331;BME280;8275;48.206;16.340;2023-04-01T07:18:16;97874.56;;;19.04;35.71
16331;BME280;8275;48.206;16.340;2023-04-01T07:20:47;97881.06;;;19.08;35.03
16331;BME280;8275;48.206;16.340;2023-04-01T07:23:22;97888.56;;;19.08;34.82
16331;BME280;8275;48.206;16.340;2023-04-01T07:25:55;97890.75;;;19.02;34.81
16331;BME280;8275;48.206;16.340;2023-04-01T07:28:31;97887.50;;;19.00;34.93
16331;BME280;8275;48.206;16.340;2023-04-01T07:31:14;97893.53;;;19.02;34.92
16331;BME280;8275;48.206;16.340;2023-04-01T07:33:54;97888.56;;;19.08;35.15
16331;BME280;8275;48.206;16.340;2023-04-01T07:36:30;97895.84;;;19.12;35.08
16331;BME280;8275;48.206;16.340;2023-04-01T07:39:12;97901.06;;;19.14;34.98
16331;BME280;8275;48.206;16.340;2023-04-01T07:41:54;97903.97;;;19.17;34.91
16331;BME280;8275;48.206;16.340;2023-04-01T07:44:34;97897.38;;;19.22;34.93
16331;BME280;8275;48.206;16.340;2023-04-01T07:47:22;97894.84;;;19.29;34.94
16331;BME280;8275;48.206;16.340;2023-04-01T07:50:09;97886.63;;;19.32;34.28
16331;BME280;8275;48.206;16.340;2023-04-01T07:52:48;97890.88;;;19.30;34.45
16331;BME280;8275;48.206;16.340;2023-04-01T07:55:26;97895.41;;;19.34;34.40
16331;BME280;8275;48.206;16.340;2023-04-01T07:58:03;97887.34;;;19.41;34.50
16331;BME280;8275;48.206;16.340;2023-04-01T08:00:47;97895.91;;;19.48;34.31
16331;BME280;8275;48.206;16.340;2023-04-01T08:03:31;97904.09;;;19.57;33.45
16331;BME280;8275;48.206;16.340;2023-04-01T08:06:07;97877.88;;;19.54;33.59
16331;BME280;8275;48.206;16.340;2023-04-01T08:08:50;97903.78;;;19.58;33.63
16331;BME280;8275;48.206;16.340;2023-04-01T08:11:37;97894.28;;;19.59;33.19
16331;BME280;8275;48.206;16.340;2023-04-01T08:14:18;97894.84;;;19.65;33.53
16331;BME280;8275;48.206;16.340;2023-04-01T08:16:57;97903.41;;;19.72;33.56
16331;BME280;8275;48.206;16.340;2023-04-01T08:19:45;97901.78;;;19.83;33.06
16331;BME280;8275;48.206;16.340;2023-04-01T08:22:25;97900.13;;;19.94;32.20
16331;BME280;8275;48.206;16.340;2023-04-01T08:24:57;97905.91;;;20.01;32.95
16331;BME280;8275;48.206;16.340;2023-04-01T08:27:37;97907.84;;;20.13;33.19
16331;BME280;8275;48.206;16.340;2023-04-01T08:30:19;97911.47;;;20.25;32.56
16331;BME280;8275;48.206;16.340;2023-04-01T08:32:55;97900.28;;;20.38;32.86
16331;BME280;8275;48.206;16.340;2023-04-01T08:35:30;97908.25;;;20.51;32.71
16331;BME280;8275;48.206;16.340;2023-04-01T08:38:10;97900.03;;;20.70;32.72
16331;BME280;8275;48.206;16.340;2023-04-01T08:44:28;97917.03;;;20.81;30.87
16331;BME280;8275;48.206;16.340;2023-04-01T08:50:43;97922.41;;;20.74;31.64
16331;BME280;8275;48.206;16.340;2023-04-01T08:53:26;97907.41;;;20.78;30.64
16331;BME280;8275;48.206;16.340;2023-04-01T08:56:09;97914.69;;;20.83;30.88
16331;BME280;8275;48.206;16.340;2023-04-01T08:59:31;97906.59;;;20.78;31.03
16331;BME280;8275;48.206;16.340;2023-04-01T09:02:39;97919.75;;;20.65;30.26
16331;BME280;8275;48.206;16.340;2023-04-01T09:05:35;97897.19;;;20.55;30.88
16331;BME280;8275;48.206;16.340;2023-04-01T09:08:25;97938.25;;;20.58;31.20
16331;BME280;8275;48.206;16.340;2023-04-01T09:11:08;97913.06;;;20.54;30.22
16331;BME280;8275;48.206;16.340;2023-04-01T09:14:21;97922.03;;;20.48;30.39
16331;BME280;8275;48.206;16.340;2023-04-01T09:20:24;97928.25;;;20.57;30.74
16331;BME280;8275;48.206;16.340;2023-04-01T09:23:26;97919.66;;;20.62;30.97
16331;BME280;8275;48.206;16.340;2023-04-01T09:26:17;97925.06;;;20.70;30.88
16331;BME280;8275;48.206;16.340;2023-04-01T09:28:57;97930.75;;;20.74;30.13
16331;BME280;8275;48.206;16.340;2023-04-01T09:34:53;97934.44;;;20.50;30.12
16331;BME280;8275;48.206;16.340;2023-04-01T09:37:34;97936.19;;;20.43;30.51
16331;BME280;8275;48.206;16.340;2023-04-01T09:40:16;97942.56;;;20.43;30.49
16331;BME280;8275;48.206;16.340;2023-04-01T09:43:21;97939.22;;;20.38;30.61
16331;BME280;8275;48.206;16.340;2023-04-01T09:46:09;97939.41;;;20.45;30.73
16331;BME280;8275;48.206;16.340;2023-04-01T09:51:40;97939.44;;;20.72;30.04
16331;BME280;8275;48.206;16.340;2023-04-01T09:54:45;97939.88;;;20.74;30.26
16331;BME280;8275;48.206;16.340;2023-04-01T10:01:28;97938.44;;;20.92;30.64
16331;BME280;8275;48.206;16.340;2023-04-01T10:11:22;97916.38;;;21.78;30.47
16331;BME280;8275;48.206;16.340;2023-04-01T10:20:53;97914.94;;;22.18;28.06
16331;BME280;8275;48.206;16.340;2023-04-01T10:36:53;97932.66;;;21.29;27.81
16331;BME280;8275;48.206;16.340;2023-04-01T10:40:18;97931.72;;;21.09;28.76
16331;BME280;8275;48.206;16.340;2023-04-01T10:43:35;97927.94;;;21.02;28.75
16331;BME280;8275;48.206;16.340;2023-04-01T10:50:44;97927.00;;;20.97;29.18
16331;BME280;8275;48.206;16.340;2023-04-01T10:54:02;97929.00;;;20.97;29.12
16331;BME280;8275;48.206;16.340;2023-04-01T10:56:40;97923.88;;;20.99;29.09
16331;BME280;8275;48.206;16.340;2023-04-01T11:03:37;97917.47;;;21.11;29.45
16331;BME280;8275;48.206;16.340;2023-04-01T11:07:14;97917.91;;;21.28;28.95
16331;BME280;8275;48.206;16.340;2023-04-01T11:10:31;97905.25;;;21.46;28.92
16331;BME280;8275;48.206;16.340;2023-04-01T11:20:01;97908.00;;;21.62;28.28
16331;BME280;8275;48.206;16.340;2023-04-01T11:22:58;97908.19;;;21.69;28.58
16331;BME280;8275;48.206;16.340;2023-04-01T11:26:11;97908.34;;;21.76;28.08
16331;BME280;8275;48.206;16.340;2023-04-01T11:29:08;97916.88;;;21.83;27.82
16331;BME280;8275;48.206;16.340;2023-04-01T11:31:47;97910.78;;;21.93;27.87
16331;BME280;8275;48.206;16.340;2023-04-01T11:34:41;97911.13;;;22.07;27.68
16331;BME280;8275;48.206;16.340;2023-04-01T11:37:27;97899.91;;;22.23;27.85
16331;BME280;8275;48.206;16.340;2023-04-01T11:40:12;97902.19;;;22.36;27.54
16331;BME280;8275;48.206;16.340;2023-04-01T11:42:49;97899.50;;;22.40;26.52
16331;BME280;8275;48.206;16.340;2023-04-01T11:45:33;97897.34;;;22.33;26.14
16331;BME280;8275;48.206;16.340;2023-04-01T11:48:37;97920.00;;;22.13;25.93
16331;BME280;8275;48.206;16.340;2023-04-01T11:51:40;97914.47;;;21.97;26.14
16331;BME280;8275;48.206;16.340;2023-04-01T11:57:51;97916.88;;;21.83;26.83
16331;BME280;8275;48.206;16.340;2023-04-01T12:01:04;97904.94;;;21.98;26.55
16331;BME280;8275;48.206;16.340;2023-04-01T12:04:00;97914.28;;;22.25;26.79
16331;BME280;8275;48.206;16.340;2023-04-01T12:06:44;97908.66;;;22.60;26.75
16331;BME280;8275;48.206;16.340;2023-04-01T12:09:24;97907.13;;;22.81;26.22
16331;BME280;8275;48.206;16.340;2023-04-01T12:12:15;97908.31;;;22.80;25.48
16331;BME280;8275;48.206;16.340;2023-04-01T12:15:01;97907.16;;;22.62;25.58
16331;BME280;8275;48.206;16.340;2023-04-01T12:17:39;97904.31;;;22.43;25.48
16331;BME280;8275;48.206;16.340;2023-04-01T12:20:33;97904.66;;;22.22;25.65
16331;BME280;8275;48.206;16.340;2023-04-01T12:23:37;97902.00;;;22.10;25.79
16331;BME280;8275;48.206;16.340;2023-04-01T12:26:25;97909.66;;;22.13;26.42
16331;BME280;8275;48.206;16.340;2023-04-01T12:29:09;97908.56;;;22.18;26.26
16331;BME280;8275;48.206;16.340;2023-04-01T12:31:51;97910.34;;;22.26;26.14
16331;BME280;8275;48.206;16.340;2023-04-01T12:34:55;97904.25;;;22.40;26.41
16331;BME280;8275;48.206;16.340;2023-04-01T12:37:36;97910.91;;;22.70;25.15
16331;BME280;8275;48.206;16.340;2023-04-01T12:40:31;97899.78;;;22.73;25.37
16331;BME280;8275;48.206;16.340;2023-04-01T12:43:33;97904.56;;;22.73;25.62
16331;BME280;8275;48.206;16.340;2023-04-01T12:46:16;97903.31;;;22.70;25.63
16331;BME280;8275;48.206;16.340;2023-04-01T12:52:10;97919.22;;;22.31;27.17
16331;BME280;8275;48.206;16.340;2023-04-01T12:58:44;97903.25;;;22.67;26.49
16331;BME280;8275;48.206;16.340;2023-04-01T13:04:58;97875.41;;;24.39;25.97
16331;BME280;8275;48.206;16.340;2023-04-01T13:08:04;97879.91;;;25.58;24.92
16331;BME280;8275;48.206;16.340;2023-04-01T13:11:02;97870.00;;;26.29;22.27
16331;BME280;8275;48.206;16.340;2023-04-01T13:14:01;97864.94;;;26.73;21.15
16331;BME280;8275;48.206;16.340;2023-04-01T13:16:38;97861.72;;;26.68;21.38
16331;BME280;8275;48.206;16.340;2023-04-01T13:19:13;97860.66;;;27.11;21.70
16331;BME280;8275;48.206;16.340;2023-04-01T13:21:55;97862.72;;;27.56;20.92
16331;BME280;8275;48.206;16.340;2023-04-01T13:24:45;97857.50;;;27.41;20.43
16331;BME280;8275;48.206;16.340;2023-04-01T13:27:21;97865.88;;;27.12;20.71
16331;BME280;8275;48.206;16.340;2023-04-01T13:30:03;97860.13;;;26.70;20.92
16331;BME280;8275;48.206;16.340;2023-04-01T13:32:46;97869.19;;;26.32;21.70
16331;BME280;8275;48.206;16.340;2023-04-01T13:35:31;97868.16;;;25.96;21.62
16331;BME280;8275;48.206;16.340;2023-04-01T13:38:48;97865.16;;;25.64;22.08
16331;BME280;8275;48.206;16.340;2023-04-01T13:41:32;97875.97;;;25.66;21.52
16331;BME280;8275;48.206;16.340;2023-04-01T13:44:12;97868.75;;;26.19;20.85
16331;BME280;8275;48.206;16.340;2023-04-01T13:50:34;97849.41;;;27.96;19.06
16331;BME280;8275;48.206;16.340;2023-04-01T13:53:46;97839.84;;;28.90;19.72
16331;BME280;8275;48.206;16.340;2023-04-01T13:56:41;97851.47;;;30.06;19.11
16331;BME280;8275;48.206;16.340;2023-04-01T13:59:46;97845.97;;;31.23;18.87
16331;BME280;8275;48.206;16.340;2023-04-01T14:02:51;97834.06;;;31.85;18.48
16331;BME280;8275;48.206;16.340;2023-04-01T14:12:06;97842.72;;;30.34;17.15
16331;BME280;8275;48.206;16.340;2023-04-01T14:14:52;97837.22;;;30.16;17.21
16331;BME280;8275;48.206;16.340;2023-04-01T14:17:39;97823.06;;;29.82;17.46
16331;BME280;8275;48.206;16.340;2023-04-01T14:20:28;97835.53;;;29.85;17.67
16331;BME280;8275;48.206;16.340;2023-04-01T14:26:16;97837.00;;;30.41;17.71
16331;BME280;8275;48.206;16.340;2023-04-01T14:28:59;97835.94;;;30.58;16.69
16331;BME280;8275;48.206;16.340;2023-04-01T14:32:02;97839.81;;;30.41;17.29
16331;BME280;8275;48.206;16.340;2023-04-01T14:34:49;97832.22;;;29.94;17.10
16331;BME280;8275;48.206;16.340;2023-04-01T14:38:15;97837.28;;;29.13;16.73
16331;BME280;8275;48.206;16.340;2023-04-01T14:40:59;97837.69;;;28.36;17.31
16331;BME280;8275;48.206;16.340;2023-04-01T14:47:09;97849.03;;;27.16;17.76
16331;BME280;8275;48.206;16.340;2023-04-01T14:49:43;97843.72;;;26.83;17.61
16331;BME280;8275;48.206;16.340;2023-04-01T14:52:21;97835.56;;;26.46;17.89
16331;BME280;8275;48.206;16.340;2023-04-01T14:54:52;97847.44;;;26.11;17.71
16331;BME280;8275;48.206;16.340;2023-04-01T14:57:25;97841.16;;;25.74;17.90
16331;BME280;8275;48.206;16.340;2023-04-01T15:00:12;97840.47;;;25.40;18.81
16331;BME280;8275;48.206;16.340;2023-04-01T15:02:51;97823.88;;;25.21;18.82
16331;BME280;8275;48.206;16.340;2023-04-01T15:05:32;97838.56;;;25.04;18.96
16331;BME280;8275;48.206;16.340;2023-04-01T15:08:16;97841.19;;;24.86;18.93
16331;BME280;8275;48.206;16.340;2023-04-01T15:11:17;97853.72;;;24.66;19.29
16331;BME280;8275;48.206;16.340;2023-04-01T15:14:26;97843.09;;;24.46;19.62
16331;BME280;8275;48.206;16.340;2023-04-01T15:17:14;97844.56;;;24.36;19.73
16331;BME280;8275;48.206;16.340;2023-04-01T15:20:10;97853.56;;;24.19;19.73
16331;BME280;8275;48.206;16.340;2023-04-01T15:23:05;97849.63;;;23.97;19.91
16331;BME280;8275;48.206;16.340;2023-04-01T15:26:08;97851.31;;;23.76;20.44
16331;BME280;8275;48.206;16.340;2023-04-01T15:28:51;97858.66;;;23.61;20.49
16331;BME280;8275;48.206;16.340;2023-04-01T15:31:29;97869.25;;;23.48;21.29
16331;BME280;8275;48.206;16.340;2023-04-01T15:37:10;97868.13;;;23.08;21.73
16331;BME280;8275;48.206;16.340;2023-04-01T15:39:55;97882.94;;;22.89;22.42
16331;BME280;8275;48.206;16.340;2023-04-01T15:42:51;97885.00;;;22.73;22.70
16331;BME280;8275;48.206;16.340;2023-04-01T15:45:37;97894.69;;;22.60;22.61
16331;BME280;8275;48.206;16.340;2023-04-01T15:48:48;97891.56;;;22.42;22.98